Mary Rose Brusco — WDE2412 — position and weather

sailwx.info

Track history (hours):
 
Tides and Currents Weather Stations Pressure Air Temp Water Temp Dewpoint Dewpoint Depression Visibility Wind Speed Wind Dir Waves Ship Positions

Mary Rose Brusco

Owner: Brusco Tug & Barge, Inc., Longview, WA. More information available from US FCC via Universal Licensing System and Coast Guard Vessel Documentation Center.

Last reported at 2015-May-22 19:33 UTC. Time now 2015-May-23 11:52 UTC.
Position N 47°59' W 122°13'.

Length 20 m; draft 3 m.

Type: Towing. MMSI: 367324840.

Date/timePositionNaut miles runAvg speedWind from/ knotsBaromVisibWave heightAir tempDewpointWater temp
2015-May-22 19:33N 47°59' W 122°13'2 2.7
2015-May-22 18:37N 47°58' W 122°17'1 7.9
2015-May-22 18:33N 47°58' W 122°16'2 1.8
2015-May-22 17:33N 47°59' W 122°13'0 0.1
2015-May-22 14:33N 47°59' W 122°13'1 1.4
2015-May-22 13:30N 47°58' W 122°15'2 0.1
2015-May-21 17:17N 47°59' W 122°13'4 5.2
2015-May-21 16:33N 47°57' W 122°18'0 0.9
2015-May-21 16:02N 47°57' W 122°18'2 3.8
2015-May-21 15:33N 47°58' W 122°15'1 3.4
2015-May-21 15:17N 47°58' W 122°14'0 0.4
2015-May-21 14:33N 47°59' W 122°14'0 0.1
2015-May-21 13:33N 47°59' W 122°14'0 0.0
2015-May-19 14:33N 47°59' W 122°13'1 0.7
2015-May-19 13:26N 47°58' W 122°15'0 0.0
2015-May-18 14:34N 47°58' W 122°14'1 2.2
2015-May-18 13:56N 47°58' W 122°16'2 5.0
2015-May-18 13:34N 47°59' W 122°13'  
2015-May-15 16:04N 47°59' W 122°13'0 1.0
2015-May-15 15:33N 47°59' W 122°14'0 0.3
2015-May-15 14:33N 47°59' W 122°14'2 1.8
2015-May-15 13:33N 47°58' W 122°16'2 0.1
2015-May-13 23:33N 47°59' W 122°14'3 3.1
2015-May-13 22:41N 47°58' W 122°17'1 7.5
2015-May-13 22:31N 47°58' W 122°16'1 8.4
2015-May-13 22:23N 47°59' W 122°14'  
Track history (hours):
 
Tides and Currents Weather Stations Pressure Air Temp Water Temp Dewpoint Dewpoint Depression Visibility Wind Speed Wind Dir Waves Ship Positions

Mary Rose Brusco

Owner: Brusco Tug & Barge, Inc., Longview, WA. More information available from US FCC via Universal Licensing System and Coast Guard Vessel Documentation Center.

Last reported at 2015-May-22 19:33 UTC. Time now 2015-May-23 11:52 UTC.
Position N 47°59' W 122°13'.

Length 20 m; draft 3 m.

Type: Towing. MMSI: 367324840.

Date/timePositionNaut miles runAvg speedWind from/ knotsBaromVisibWave heightAir tempDewpointWater temp
2015-May-22 19:33N 47°59' W 122°13'2 2.7
2015-May-22 18:37N 47°58' W 122°17'1 7.9
2015-May-22 18:33N 47°58' W 122°16'2 1.8
2015-May-22 17:33N 47°59' W 122°13'0 0.1
2015-May-22 14:33N 47°59' W 122°13'1 1.4
2015-May-22 13:30N 47°58' W 122°15'2 0.1
2015-May-21 17:17N 47°59' W 122°13'4 5.2
2015-May-21 16:33N 47°57' W 122°18'0 0.9
2015-May-21 16:02N 47°57' W 122°18'2 3.8
2015-May-21 15:33N 47°58' W 122°15'1 3.4
2015-May-21 15:17N 47°58' W 122°14'0 0.4
2015-May-21 14:33N 47°59' W 122°14'0 0.1
2015-May-21 13:33N 47°59' W 122°14'0 0.0
2015-May-19 14:33N 47°59' W 122°13'1 0.7
2015-May-19 13:26N 47°58' W 122°15'0 0.0
2015-May-18 14:34N 47°58' W 122°14'1 2.2
2015-May-18 13:56N 47°58' W 122°16'2 5.0
2015-May-18 13:34N 47°59' W 122°13'  
2015-May-15 16:04N 47°59' W 122°13'0 1.0
2015-May-15 15:33N 47°59' W 122°14'0 0.3
2015-May-15 14:33N 47°59' W 122°14'2 1.8
2015-May-15 13:33N 47°58' W 122°16'2 0.1
2015-May-13 23:33N 47°59' W 122°14'3 3.1
2015-May-13 22:41N 47°58' W 122°17'1 7.5
2015-May-13 22:31N 47°58' W 122°16'1 8.4
2015-May-13 22:23N 47°59' W 122°14'  

Dump ship's entire track history